Malmstrom AFB, Montana
Current Conditions -  °F | °C
As of 1:56 AM on Friday 19 Dec 2014 (Local Time) from KGFA Reporting Station
Clear Clear  
Wind Chill: 23°   Ceiling: Unl
Heat Index: 32°   Visibility: 10mi
Dew Point: 26°   Wind: 12mph
Humidity: 78%   Direction: 220°SW
Pressure: 29.91"   Gusts: NA
Location:  47.51°N, 111.19°W
Report Text: KGFA 190856Z AUTO 22010KT 10SM CLR 00/M03 A2991 RMK AO2 SLP156 T00021032
Loading
Personal Weather Stations






























Interactive Weather Map New forecast layout! Learn more

10-Day Weather Forecast

Advertisements
Track Severe Weather on mobile